Time;durP1;ratioP1;P1;durP2;ratioP2;P2;SDS_P1;SDS_P2;PMS_P1;PMS_P2;Temp;Humidity;BMP_temperature;BMP_pressure;BME280_temperature;BME280_humidity;BME280_pressure;Samples;Min_cycle;Max_cycle;Signal;HPM_P1;HPM_P2
2023/10/01 00:01:45;;;;;;;2.03;1.43;;;;;;;19.72;56.35;99575.72;5080711;28;20293;-70
2023/10/01 00:04:12;;;;;;;6.83;1.50;;;;;;;19.70;56.39;99572.41;5093978;28;20294;-69
2023/10/01 00:06:39;;;;;;;1.43;1.33;;;;;;;19.65;56.69;99574.44;5088974;28;20198;-69
2023/10/01 00:09:08;;;;;;;2.40;1.50;;;;;;;19.62;56.74;99574.66;5094137;28;20237;-69
2023/10/01 00:11:37;;;;;;;3.80;1.57;;;;;;;19.60;56.91;99576.53;5094076;28;20213;-69
2023/10/01 00:14:06;;;;;;;6.10;1.50;;;;;;;19.55;56.79;99570.78;5093791;28;20200;-69
2023/10/01 00:16:33;;;;;;;1.30;1.20;;;;;;;19.54;56.66;99560.47;5093292;28;20669;-69
2023/10/01 00:19:00;;;;;;;1.30;1.30;;;;;;;19.53;56.93;99564.00;5093783;28;20193;-69
2023/10/01 00:21:28;;;;;;;1.43;1.40;;;;;;;19.54;56.90;99569.13;5092674;28;20194;-69
2023/10/01 00:23:55;;;;;;;1.40;1.40;;;;;;;19.54;56.98;99558.72;5093886;28;20673;-69
2023/10/01 00:26:23;;;;;;;1.73;1.63;;;;;;;19.55;57.02;99562.97;5094096;28;20685;-69
2023/10/01 00:28:50;;;;;;;7.83;1.73;;;;;;;19.55;56.92;99565.56;5092519;28;20209;-69
2023/10/01 00:31:17;;;;;;;1.77;1.77;;;;;;;19.59;56.61;99564.44;5093833;28;20216;-69
2023/10/01 00:33:44;;;;;;;2.00;1.90;;;;;;;19.50;56.79;99549.44;5092086;28;20228;-69
2023/10/01 00:36:11;;;;;;;2.37;2.23;;;;;;;19.62;56.70;99568.59;5090688;28;20216;-69
2023/10/01 00:38:37;;;;;;;1.43;1.40;;;;;;;19.61;56.53;99562.56;5092482;28;20204;-69
2023/10/01 00:41:07;;;;;;;1.93;1.83;;;;;;;19.63;56.78;99567.69;5089402;28;20254;-69
2023/10/01 00:43:36;;;;;;;6.77;1.87;;;;;;;19.66;56.35;99555.31;5093200;28;20202;-69
2023/10/01 00:46:03;;;;;;;2.23;2.13;;;;;;;19.67;56.25;99557.00;5093591;28;20744;-69
2023/10/01 00:48:30;;;;;;;2.17;1.57;;;;;;;19.69;56.35;99559.50;5092146;28;20207;-69
2023/10/01 00:50:59;;;;;;;1.73;1.63;;;;;;;19.67;56.00;99550.97;5092095;28;20752;-70
2023/10/01 00:53:26;;;;;;;3.57;1.57;;;;;;;19.70;55.89;99551.59;5092611;28;20300;-69
2023/10/01 00:55:53;;;;;;;1.60;1.50;;;;;;;19.72;56.03;99547.13;5092980;28;20209;-69
2023/10/01 00:58:21;;;;;;;1.50;1.40;;;;;;;19.74;55.77;99549.63;5093101;28;20246;-69
2023/10/01 01:00:50;;;;;;;1.60;1.50;;;;;;;19.72;55.83;99544.50;5092724;28;20659;-69
2023/10/01 01:03:21;;;;;;;2.97;1.50;;;;;;;19.71;55.61;99540.25;5090825;28;20874;-69
2023/10/01 01:06:12;;;;;;;1.53;1.50;;;;;;;19.72;55.90;99546.28;5093026;28;20572;-70
2023/10/01 01:08:46;;;;;;;6.27;2.00;;;;;;;19.69;55.94;99542.13;5091847;28;20220;-70
2023/10/01 01:11:15;;;;;;;8.70;2.23;;;;;;;19.66;56.21;99537.13;5092773;28;20304;-69
2023/10/01 01:13:43;;;;;;;2.33;1.50;;;;;;;19.67;56.19;99540.56;5092546;28;20669;-69
2023/10/01 01:16:12;;;;;;;1.80;1.70;;;;;;;19.66;56.27;99542.31;5092772;28;20257;-69
2023/10/01 01:18:41;;;;;;;1.63;1.53;;;;;;;19.65;56.14;99537.19;5092160;28;20198;-69
2023/10/01 01:21:10;;;;;;;1.80;1.70;;;;;;;19.66;56.32;99537.13;5092309;28;20225;-69
2023/10/01 01:23:41;;;;;;;0.97;0.97;;;;;;;19.67;56.39;99541.41;5092679;28;20199;-69
2023/10/01 01:26:10;;;;;;;1.90;1.80;;;;;;;19.59;56.34;99529.81;5092417;28;20662;-69
2023/10/01 01:28:37;;;;;;;2.00;1.90;;;;;;;19.66;56.59;99539.72;5092039;28;20658;-69
2023/10/01 01:31:04;;;;;;;1.67;1.57;;;;;;;19.66;56.59;99534.50;5092305;28;20212;-70
2023/10/01 01:33:40;;;;;;;6.50;1.73;;;;;;;19.67;56.72;99535.34;5092732;28;20721;-69
2023/10/01 01:36:10;;;;;;;1.60;1.50;;;;;;;19.66;56.66;99544.91;5092107;28;20210;-70
2023/10/01 01:38:46;;;;;;;2.70;2.50;;;;;;;19.64;56.89;99539.00;5092175;28;20196;-69
2023/10/01 01:41:14;;;;;;;1.97;1.87;;;;;;;19.61;57.04;99536.56;5091624;28;20189;-69
2023/10/01 01:43:43;;;;;;;1.50;1.40;;;;;;;19.61;57.02;99539.16;5092261;28;20206;-69
2023/10/01 01:46:11;;;;;;;1.50;1.40;;;;;;;19.59;57.40;99532.41;5091812;28;20209;-70
2023/10/01 01:48:40;;;;;;;1.80;1.70;;;;;;;19.55;57.65;99542.16;5091400;28;20244;-69
2023/10/01 01:51:08;;;;;;;3.03;1.40;;;;;;;19.55;57.59;99536.97;5091719;28;20305;-69
2023/10/01 01:53:35;;;;;;;3.30;1.80;;;;;;;19.55;57.73;99536.97;5091872;28;20201;-69
2023/10/01 01:56:10;;;;;;;1.13;1.13;;;;;;;19.56;57.63;99546.44;5092302;28;20564;-69
2023/10/01 01:58:39;;;;;;;2.37;1.80;;;;;;;19.53;57.82;99541.44;5091940;28;20660;-69
2023/10/01 02:01:18;;;;;;;1.73;1.63;;;;;;;19.39;57.85;99523.25;5091759;28;20198;-70
2023/10/01 02:03:51;;;;;;;4.07;1.83;;;;;;;19.50;58.06;99541.63;5091941;28;20195;-70
2023/10/01 02:06:26;;;;;;;2.00;1.77;;;;;;;19.43;58.03;99524.75;5088881;28;20201;-69
2023/10/01 02:08:57;;;;;;;2.43;2.10;;;;;;;19.50;58.32;99539.03;5091203;28;20247;-69
2023/10/01 02:11:26;;;;;;;2.23;1.37;;;;;;;19.51;57.90;99540.72;5091565;28;20217;-69
2023/10/01 02:13:54;;;;;;;1.60;1.50;;;;;;;19.54;57.69;99535.31;5091690;28;20201;-69
2023/10/01 02:16:37;;;;;;;1.50;1.43;;;;;;;19.54;58.00;99540.53;5091273;28;20234;-69
2023/10/01 02:19:14;;;;;;;1.57;1.57;;;;;;;19.51;57.61;99529.47;5090572;28;20732;-69
2023/10/01 02:21:48;;;;;;;5.57;1.63;;;;;;;19.52;57.41;99521.56;5091844;28;20685;-69
2023/10/01 02:24:21;;;;;;;2.03;1.37;;;;;;;19.58;57.70;99534.16;5091322;28;20228;-69
2023/10/01 02:26:53;;;;;;;1.47;1.37;;;;;;;19.62;57.75;99538.25;5089812;28;20288;-69
2023/10/01 02:29:24;;;;;;;1.53;1.53;;;;;;;19.67;57.20;99535.34;5091691;28;20199;-69
2023/10/01 02:31:55;;;;;;;2.77;2.43;;;;;;;19.70;57.05;99530.78;5091629;28;20214;-70
2023/10/01 02:34:22;;;;;;;2.10;1.77;;;;;;;19.72;57.24;99531.50;5090570;28;20263;-70
2023/10/01 02:36:49;;;;;;;1.93;1.30;;;;;;;19.74;57.01;99532.22;5091108;28;20209;-69
2023/10/01 02:39:20;;;;;;;1.37;1.17;;;;;;;19.77;56.85;99532.03;5091361;28;20205;-69
2023/10/01 02:42:09;;;;;;;3.80;2.40;;;;;;;19.76;57.07;99525.19;5091036;28;20205;-69
2023/10/01 02:44:38;;;;;;;3.37;2.00;;;;;;;19.76;57.51;99524.34;5091264;28;20201;-69
2023/10/01 02:47:16;;;;;;;1.63;1.53;;;;;;;19.78;57.23;99533.72;5090556;28;20575;-69
2023/10/01 02:49:49;;;;;;;1.63;1.53;;;;;;;19.81;57.13;99523.09;5089510;28;20306;-69
2023/10/01 02:52:16;;;;;;;2.83;2.27;;;;;;;19.84;56.90;99525.50;5081977;28;20267;-69
2023/10/01 02:54:43;;;;;;;1.40;1.30;;;;;;;19.84;57.04;99517.69;5070863;28;20197;-69
2023/10/01 02:57:13;;;;;;;1.50;1.40;;;;;;;19.87;56.96;99517.47;5071025;28;20232;-69
2023/10/01 03:00:20;;;;;;;1.53;1.43;;;;;;;19.93;56.76;99518.88;5083030;28;20193;-69
2023/10/01 03:02:31;;;;;;;1.73;1.60;;;;;;;19.99;56.65;99520.22;5090714;28;20205;-69
2023/10/01 03:05:05;;;;;;;2.90;2.70;;;;;;;20.04;56.24;99516.38;5090940;28;20237;-69
2023/10/01 03:07:38;;;;;;;1.50;1.40;;;;;;;20.08;56.50;99515.22;5090529;28;20206;-70
2023/10/01 03:10:12;;;;;;;1.53;1.43;;;;;;;20.19;55.49;99523.16;5090716;28;20203;-69
2023/10/01 03:12:40;;;;;;;2.17;2.07;;;;;;;20.06;55.44;99496.28;5090323;28;20213;-70
2023/10/01 03:15:23;;;;;;;2.10;2.00;;;;;;;20.25;55.42;99516.69;5091037;28;20232;-69
2023/10/01 03:18:06;;;;;;;1.90;1.80;;;;;;;20.31;55.32;99526.72;5089673;28;20238;-69
2023/10/01 03:23:26;;;;;;;1.50;1.50;;;;;;;20.33;55.12;99524.84;5087057;28;20210;-69
2023/10/01 03:26:04;;;;;;;2.47;1.40;;;;;;;20.37;54.97;99521.09;5083005;28;20198;-69
2023/10/01 03:29:13;;;;;;;1.50;1.50;;;;;;;20.27;55.14;99509.63;5086331;28;20199;-69
2023/10/01 03:31:21;;;;;;;1.27;1.27;;;;;;;20.37;55.07;99526.31;5090361;28;20312;-69
2023/10/01 03:33:51;;;;;;;1.83;1.77;;;;;;;20.39;54.91;99525.25;5090548;28;20292;-70
2023/10/01 03:36:25;;;;;;;2.27;1.70;;;;;;;20.41;55.11;99531.22;5089510;28;20230;-69
2023/10/01 03:38:59;;;;;;;2.17;1.50;;;;;;;20.43;55.08;99531.09;5089987;28;20209;-69
2023/10/01 03:41:27;;;;;;;3.10;1.80;;;;;;;20.45;54.63;99531.84;5090187;28;20732;-69
2023/10/01 03:44:07;;;;;;;2.13;1.37;;;;;;;20.45;54.69;99526.63;5090251;28;20206;-69
2023/10/01 03:46:42;;;;;;;4.83;1.67;;;;;;;20.43;54.52;99531.94;5089501;28;20555;-69
2023/10/01 03:51:59;;;;;;;1.40;1.40;;;;;;;20.40;54.78;99523.50;5087248;28;20698;-69
2023/10/01 03:54:52;;;;;;;2.10;1.90;;;;;;;20.40;54.89;99533.91;5070203;28;20199;-69
2023/10/01 03:57:17;;;;;;;2.60;1.50;;;;;;;20.37;55.33;99526.31;5075462;28;20584;-69
2023/10/01 03:59:51;;;;;;;1.90;1.80;;;;;;;20.27;55.50;99517.44;5087704;28;20693;-69
2023/10/01 04:02:28;;;;;;;1.97;1.87;;;;;;;20.37;55.16;99531.50;5089907;28;20249;-70
2023/10/01 04:04:58;;;;;;;1.77;1.67;;;;;;;20.36;55.52;99535.03;5090330;28;20202;-69
2023/10/01 04:07:40;;;;;;;2.80;2.03;;;;;;;20.36;55.70;99537.66;5089509;28;20191;-69
2023/10/01 04:10:13;;;;;;;2.33;2.13;;;;;;;20.35;55.82;99543.81;5090069;28;20575;-69
2023/10/01 04:12:44;;;;;;;1.60;1.50;;;;;;;20.32;55.85;99538.81;5087725;28;20222;-69
2023/10/01 04:15:27;;;;;;;1.77;1.67;;;;;;;20.32;55.86;99546.63;5087702;28;20200;-70
2023/10/01 04:20:36;;;;;;;7.67;1.90;;;;;;;20.27;55.94;99546.09;5088411;28;20201;-70
2023/10/01 04:23:04;;;;;;;1.90;1.80;;;;;;;20.26;55.95;99550.47;5088267;28;20190;-69
2023/10/01 04:25:36;;;;;;;1.50;1.50;;;;;;;20.27;56.67;99551.28;5089113;28;20206;-69
2023/10/01 04:28:05;;;;;;;1.73;1.43;;;;;;;20.28;56.45;99558.19;5089838;28;20197;-69
2023/10/01 04:30:34;;;;;;;1.70;1.60;;;;;;;20.21;56.73;99549.91;5092610;28;20200;-70
2023/10/01 04:33:16;;;;;;;1.20;1.10;;;;;;;20.29;56.50;99559.84;5093460;28;20294;-69
2023/10/01 04:35:51;;;;;;;1.03;1.03;;;;;;;20.31;56.26;99560.56;5093290;28;20195;-69
2023/10/01 04:38:19;;;;;;;5.13;1.20;;;;;;;20.33;56.42;99563.91;5093226;28;20211;-70
2023/10/01 04:40:48;;;;;;;1.80;1.70;;;;;;;20.34;56.52;99568.19;5093513;28;20275;-69
2023/10/01 04:43:19;;;;;;;1.00;1.00;;;;;;;20.35;56.44;99567.25;5093314;28;20222;-69
2023/10/01 04:45:52;;;;;;;1.63;1.53;;;;;;;20.37;56.98;99567.97;5090290;28;20202;-69
2023/10/01 04:48:22;;;;;;;1.83;1.70;;;;;;;20.38;56.43;99569.66;5093515;28;20632;-69
2023/10/01 04:50:50;;;;;;;1.83;1.73;;;;;;;20.42;56.59;99574.53;5089905;28;20202;-69
2023/10/01 04:53:20;;;;;;;1.43;1.43;;;;;;;20.42;56.57;99577.13;5092863;28;20251;-69
2023/10/01 04:55:57;;;;;;;1.53;1.53;;;;;;;20.46;56.56;99582.97;5092922;28;20634;-70
2023/10/01 04:58:26;;;;;;;1.87;1.80;;;;;;;20.47;56.45;99579.44;5093178;28;20620;-69
2023/10/01 05:00:56;;;;;;;1.90;1.63;;;;;;;20.46;57.37;99569.94;5092917;28;20201;-69
2023/10/01 05:03:38;;;;;;;1.83;1.63;;;;;;;20.52;56.32;99576.53;5092798;28;20230;-70
2023/10/01 05:06:07;;;;;;;1.50;1.50;;;;;;;20.58;56.37;99587.34;5093152;28;20202;-69
2023/10/01 05:08:39;;;;;;;1.70;1.60;;;;;;;20.63;56.53;99593.09;5092470;28;20226;-70
2023/10/01 05:11:10;;;;;;;1.43;1.40;;;;;;;20.65;57.11;99595.56;5092700;28;20231;-69
2023/10/01 05:13:39;;;;;;;1.63;1.37;;;;;;;20.70;56.57;99596.94;5088556;28;20732;-70
2023/10/01 05:16:08;;;;;;;1.93;1.83;;;;;;;20.66;56.82;99589.44;5090021;28;20202;-69
2023/10/01 05:18:35;;;;;;;2.43;1.77;;;;;;;20.74;57.01;99595.75;5091373;28;20199;-69
2023/10/01 05:21:04;;;;;;;1.40;1.40;;;;;;;20.86;56.56;99597.56;5092530;28;20187;-69
2023/10/01 05:23:30;;;;;;;1.50;1.37;;;;;;;20.99;56.48;99601.91;5090255;28;20676;-69
2023/10/01 05:25:57;;;;;;;3.77;1.03;;;;;;;21.06;56.43;99608.38;5089492;28;20203;-69
2023/10/01 05:28:34;;;;;;;3.17;1.73;;;;;;;21.19;55.28;99609.22;5089051;28;20215;-69
2023/10/01 05:31:05;;;;;;;1.53;1.47;;;;;;;21.34;55.49;99613.34;5090735;28;20229;-70
2023/10/01 05:33:34;;;;;;;2.60;1.90;;;;;;;21.47;55.15;99608.91;5088734;28;20598;-70
2023/10/01 05:36:04;;;;;;;1.83;1.73;;;;;;;21.51;54.28;99607.75;5091423;28;20748;-70
2023/10/01 05:38:33;;;;;;;1.40;1.40;;;;;;;21.61;53.79;99618.38;5090757;28;20206;-70
2023/10/01 05:41:03;;;;;;;1.53;1.43;;;;;;;21.68;53.92;99609.97;5090802;28;20203;-70
2023/10/01 05:43:35;;;;;;;1.73;1.63;;;;;;;21.81;52.84;99613.34;5091018;28;20231;-70
2023/10/01 05:46:02;;;;;;;1.73;1.37;;;;;;;21.81;53.41;99605.53;5089986;28;20200;-70
2023/10/01 05:48:32;;;;;;;7.10;1.80;;;;;;;21.82;52.58;99615.03;5088982;28;20651;-71
2023/10/01 05:51:00;;;;;;;1.43;1.33;;;;;;;21.79;53.08;99620.47;5091371;28;20202;-70
2023/10/01 05:53:28;;;;;;;1.70;1.60;;;;;;;21.77;53.57;99611.09;5091728;28;20215;-71
2023/10/01 05:55:55;;;;;;;1.83;1.73;;;;;;;21.71;53.88;99622.78;5091466;28;20252;-70
2023/10/01 05:58:22;;;;;;;1.90;1.80;;;;;;;21.68;53.28;99616.97;5089555;28;20238;-70
2023/10/01 06:00:57;;;;;;;2.20;2.00;;;;;;;21.60;53.81;99624.50;5090917;28;20203;-71
2023/10/01 06:03:25;;;;;;;2.10;1.57;;;;;;;21.52;53.71;99619.84;5088971;28;20195;-71
2023/10/01 06:05:57;;;;;;;9.43;1.70;;;;;;;21.51;53.75;99619.97;5086179;28;20284;-71
2023/10/01 06:08:26;;;;;;;1.17;1.17;;;;;;;21.53;54.00;99623.28;5087775;28;20322;-71
2023/10/01 06:11:06;;;;;;;3.20;1.53;;;;;;;21.50;53.56;99632.16;5087978;28;20205;-70
2023/10/01 06:13:35;;;;;;;4.53;2.00;;;;;;;21.49;56.08;99635.72;5088702;28;20582;-70
2023/10/01 06:16:11;;;;;;;1.73;1.63;;;;;;;21.41;57.50;99620.63;5089167;28;20202;-70
2023/10/01 06:18:42;;;;;;;1.73;1.63;;;;;;;21.44;56.25;99636.06;5090776;28;20293;-70
2023/10/01 06:21:10;;;;;;;1.70;1.67;;;;;;;21.37;54.96;99644.41;5089734;28;20278;-70
2023/10/01 06:23:49;;;;;;;4.33;1.47;;;;;;;21.32;55.06;99638.69;5090036;28;20289;-70
2023/10/01 06:26:18;;;;;;;1.23;1.20;;;;;;;21.17;54.67;99616.28;5089755;28;20260;-70
2023/10/01 06:28:45;;;;;;;2.97;1.80;;;;;;;21.28;54.97;99634.63;5090875;28;20257;-69
2023/10/01 06:31:12;;;;;;;2.77;1.77;;;;;;;21.24;54.34;99643.59;5087634;28;20203;-70
2023/10/01 06:33:38;;;;;;;1.70;1.70;;;;;;;21.22;54.90;99650.72;5089576;28;20226;-70
2023/10/01 06:36:19;;;;;;;1.50;1.40;;;;;;;21.24;54.58;99659.25;5085101;28;20210;-70
2023/10/01 06:38:49;;;;;;;2.00;1.90;;;;;;;21.24;55.09;99654.88;5083392;28;20257;-70
2023/10/01 06:41:19;;;;;;;1.97;1.80;;;;;;;21.28;55.78;99656.34;5089202;28;20210;-69
2023/10/01 06:43:54;;;;;;;2.23;2.03;;;;;;;21.34;55.22;99655.06;5090469;28;20338;-70
2023/10/01 06:46:23;;;;;;;1.37;1.30;;;;;;;21.38;55.22;99656.53;5088552;28;20207;-70
2023/10/01 06:48:51;;;;;;;1.30;1.30;;;;;;;21.40;55.02;99663.28;5088045;28;20620;-70
2023/10/01 06:51:24;;;;;;;1.67;1.57;;;;;;;21.49;55.23;99659.19;5089322;28;20551;-70
2023/10/01 06:53:58;;;;;;;1.40;1.30;;;;;;;21.51;54.28;99672.13;5088798;28;20226;-70
2023/10/01 06:56:26;;;;;;;1.80;1.70;;;;;;;21.55;54.18;99663.97;5090123;28;20203;-70
2023/10/01 06:59:13;;;;;;;1.77;1.67;;;;;;;21.58;54.04;99662.94;5086886;28;20261;-70
2023/10/01 07:01:46;;;;;;;2.00;1.90;;;;;;;21.61;53.57;99663.56;5079077;28;20227;-70
2023/10/01 07:04:15;;;;;;;1.90;1.80;;;;;;;21.62;53.87;99675.63;5085200;28;20639;-70
2023/10/01 07:06:44;;;;;;;1.57;1.53;;;;;;;21.60;54.09;99667.09;5086809;28;20655;-69
2023/10/01 07:09:27;;;;;;;2.07;1.97;;;;;;;21.62;53.42;99665.19;5083830;28;20219;-70
2023/10/01 07:11:56;;;;;;;1.75;1.65;;;;;;;21.72;52.58;99676.66;5082687;28;20467;-78
2023/10/01 07:14:31;;;;;;;2.17;1.60;;;;;;;21.75;52.41;99676.44;5079106;28;20241;-78
2023/10/01 07:17:00;;;;;;;1.70;1.60;;;;;;;21.80;52.68;99673.50;5082679;28;20513;-68
2023/10/01 07:19:27;;;;;;;1.33;1.30;;;;;;;21.86;52.03;99673.91;5077076;28;20752;-67
2023/10/01 07:21:57;;;;;;;3.07;2.20;;;;;;;21.83;53.18;99684.56;5091397;28;20302;-68
2023/10/01 07:24:28;;;;;;;1.97;1.87;;;;;;;21.80;52.56;99676.13;5091783;28;20689;-67
2023/10/01 07:27:03;;;;;;;2.17;2.07;;;;;;;21.79;53.86;99679.66;5091643;28;20298;-68
2023/10/01 07:29:33;;;;;;;1.53;1.43;;;;;;;21.81;52.68;99683.81;5091606;28;20666;-67
2023/10/01 07:32:01;;;;;;;2.00;1.90;;;;;;;21.76;52.63;99675.50;5091448;28;20207;-68
2023/10/01 07:34:31;;;;;;;4.57;1.90;;;;;;;21.83;52.00;99688.94;5090917;28;20206;-68
2023/10/01 07:36:59;;;;;;;3.67;2.00;;;;;;;21.81;52.67;99681.22;5091639;28;20674;-67
2023/10/01 07:39:32;;;;;;;1.47;1.37;;;;;;;21.88;52.43;99694.66;5091325;28;20195;-67
2023/10/01 07:41:59;;;;;;;2.50;1.87;;;;;;;21.88;53.35;99692.03;5091688;28;20288;-68
2023/10/01 07:44:27;;;;;;;1.93;1.83;;;;;;;21.84;52.99;99688.81;5091727;28;20286;-68
2023/10/01 07:46:54;;;;;;;1.77;1.67;;;;;;;21.91;52.86;99697.06;5091458;28;20590;-68
2023/10/01 07:49:21;;;;;;;1.67;1.57;;;;;;;21.95;52.33;99701.97;5090948;28;20618;-68
2023/10/01 07:51:48;;;;;;;1.50;1.50;;;;;;;21.96;52.13;99706.25;5091606;28;20207;-68
2023/10/01 07:54:22;;;;;;;1.50;1.50;;;;;;;22.00;52.90;99706.03;5090882;28;20215;-68
2023/10/01 07:56:51;;;;;;;14.33;1.90;;;;;;;22.02;52.56;99714.59;5091497;28;20203;-67
2023/10/01 07:59:28;;;;;;;1.50;1.40;;;;;;;22.05;52.96;99714.34;5091120;28;20304;-68
2023/10/01 08:02:09;;;;;;;2.10;1.90;;;;;;;22.08;52.71;99712.38;5091597;28;20207;-68
2023/10/01 08:07:22;;;;;;;1.57;1.47;;;;;;;22.15;52.51;99716.19;5094970;28;20280;-67
2023/10/01 08:09:52;;;;;;;1.77;1.70;;;;;;;22.23;53.33;99707.81;5095159;28;20667;-67
2023/10/01 08:15:37;;;;;;;1.50;1.50;;;;;;;22.37;53.24;99718.06;5091856;28;20288;-67
2023/10/01 08:20:59;;;;;;;2.10;1.63;;;;;;;22.53;53.11;99716.00;5109925;27;20569;-68
2023/10/01 08:23:26;;;;;;;4.50;1.13;;;;;;;22.63;52.23;99727.44;5109623;28;20206;-68
2023/10/01 08:25:55;;;;;;;2.47;1.67;;;;;;;22.67;52.78;99722.84;5109452;28;20198;-69
2023/10/01 08:28:29;;;;;;;4.77;1.63;;;;;;;22.73;51.87;99723.22;5109500;28;20662;-68
2023/10/01 08:31:20;;;;;;;2.30;2.00;;;;;;;22.80;51.58;99723.59;5109653;28;20203;-68
2023/10/01 08:33:51;;;;;;;1.57;1.47;;;;;;;22.88;52.02;99719.44;5109320;28;20202;-69
2023/10/01 08:36:24;;;;;;;1.60;1.50;;;;;;;22.99;51.96;99719.47;5109399;28;20202;-69
2023/10/01 08:41:47;;;;;;;1.40;1.30;;;;;;;23.18;51.56;99724.13;5109067;28;20195;-68
2023/10/01 08:44:19;;;;;;;1.60;1.50;;;;;;;23.25;50.38;99730.56;5109050;28;20194;-68
2023/10/01 08:46:47;;;;;;;1.30;1.30;;;;;;;23.33;51.44;99719.47;5109324;28;20202;-69
2023/10/01 08:49:22;;;;;;;1.67;1.57;;;;;;;23.41;51.94;99720.59;5109493;28;20191;-68
2023/10/01 08:52:18;;;;;;;2.33;2.23;;;;;;;23.59;51.81;99722.75;5088729;28;20203;-68
2023/10/01 08:54:43;;;;;;;2.23;2.13;;;;;;;23.68;50.63;99696.66;5108106;28;20202;-68
2023/10/01 08:57:17;;;;;;;1.83;1.73;;;;;;;23.89;51.42;99715.91;5109056;28;20199;-68
2023/10/01 08:59:44;;;;;;;1.90;1.80;;;;;;;24.09;49.26;99716.06;5108777;28;20306;-68
2023/10/01 09:02:19;;;;;;;1.67;1.57;;;;;;;24.19;48.05;99717.03;5108854;28;20385;-68
2023/10/01 09:04:47;;;;;;;1.83;1.70;;;;;;;24.16;49.03;99696.31;5108813;28;20209;-68
2023/10/01 09:07:19;;;;;;;1.87;1.77;;;;;;;24.45;50.16;99702.63;5108840;28;20252;-68
2023/10/01 09:10:06;;;;;;;1.60;1.50;;;;;;;24.58;46.91;99712.94;5108521;28;20198;-68
2023/10/01 09:12:35;;;;;;;1.40;1.30;;;;;;;24.67;47.12;99707.75;5108602;28;20264;-68
2023/10/01 09:15:04;;;;;;;1.50;1.50;;;;;;;24.73;47.68;99712.47;5108750;28;20286;-69
2023/10/01 09:17:40;;;;;;;1.90;1.80;;;;;;;24.81;46.86;99698.75;5108440;28;20294;-69
2023/10/01 09:20:09;;;;;;;1.40;1.40;;;;;;;24.84;47.79;99704.59;5108330;28;20230;-68
2023/10/01 09:22:42;;;;;;;1.40;1.40;;;;;;;24.91;47.19;99704.91;5108460;28;20688;-68
2023/10/01 09:25:16;;;;;;;1.90;1.13;;;;;;;24.92;46.00;99706.53;5100583;28;20199;-68
2023/10/01 09:27:57;;;;;;;1.30;1.30;;;;;;;24.95;46.57;99707.13;5108233;28;20206;-68
2023/10/01 09:30:26;;;;;;;1.87;1.77;;;;;;;25.10;46.82;99712.03;5105928;28;20192;-68
2023/10/01 09:32:54;;;;;;;3.20;2.17;;;;;;;25.13;46.04;99699.50;5094521;28;20647;-67
2023/10/01 09:35:38;;;;;;;1.50;1.50;;;;;;;25.21;45.99;99702.28;5094556;28;20196;-68
2023/10/01 09:38:18;;;;;;;2.13;1.93;;;;;;;25.25;44.91;99702.84;5085330;28;20203;-67
2023/10/01 09:40:46;;;;;;;1.63;1.53;;;;;;;25.24;45.42;99695.94;5094508;28;20226;-68
2023/10/01 09:43:24;;;;;;;1.47;1.30;;;;;;;25.30;45.06;99706.72;5094468;28;20200;-68
2023/10/01 09:45:53;;;;;;;1.70;1.60;;;;;;;25.31;45.58;99702.31;5094361;28;20210;-67
2023/10/01 09:48:30;;;;;;;1.67;1.60;;;;;;;25.33;45.42;99700.41;5094636;28;20610;-67
2023/10/01 09:51:08;;;;;;;1.73;1.63;;;;;;;25.32;44.82;99698.75;5094650;28;20203;-68
2023/10/01 09:53:45;;;;;;;2.57;1.80;;;;;;;25.27;45.54;99695.66;5094358;28;20201;-67
2023/10/01 09:56:26;;;;;;;1.10;1.10;;;;;;;25.33;44.92;99700.41;5079475;28;20747;-69
2023/10/01 09:58:58;;;;;;;1.23;1.23;;;;;;;25.40;45.21;99704.16;5094027;28;20208;-67
2023/10/01 10:01:27;;;;;;;1.43;1.37;;;;;;;25.45;44.21;99699.34;5094329;28;20579;-69
2023/10/01 10:03:59;;;;;;;1.70;1.60;;;;;;;25.41;44.16;99683.03;5093983;28;20206;-68
2023/10/01 10:06:26;;;;;;;1.97;1.87;;;;;;;25.54;42.34;99698.56;5094056;28;20298;-68
2023/10/01 10:09:04;;;;;;;1.67;1.57;;;;;;;25.63;43.57;99697.75;5093916;28;20199;-68
2023/10/01 10:11:36;;;;;;;2.67;1.13;;;;;;;25.63;44.53;99671.50;5094033;28;20245;-68
2023/10/01 10:14:03;;;;;;;1.47;1.37;;;;;;;25.73;43.24;99680.25;5091059;28;20195;-68
2023/10/01 10:16:56;;;;;;;1.00;1.00;;;;;;;25.93;42.93;99694.22;5094116;28;20698;-68
2023/10/01 10:19:23;;;;;;;1.33;1.33;;;;;;;25.98;44.72;99687.59;5093684;28;20227;-68
2023/10/01 10:22:16;;;;;;;1.23;1.20;;;;;;;26.16;44.42;99679.91;5093800;28;20199;-68
2023/10/01 10:24:49;;;;;;;2.00;1.90;;;;;;;26.29;45.67;99663.84;5088998;28;20205;-68
2023/10/01 10:27:47;;;;;;;2.07;1.73;;;;;;;26.70;41.62;99681.91;5093333;28;20191;-68
2023/10/01 10:30:21;;;;;;;1.40;1.30;;;;;;;26.87;40.12;99675.97;5093159;28;20191;-69
2023/10/01 10:33:43;;;;;;;1.57;1.47;;;;;;;27.02;40.32;99678.97;5093614;28;20587;-68
2023/10/01 10:36:50;;;;;;;1.43;1.33;;;;;;;27.09;39.73;99659.81;5093200;28;20671;-68
2023/10/01 10:40:22;;;;;;;1.60;1.50;;;;;;;27.19;39.16;99677.38;5092917;28;20282;-68
2023/10/01 10:43:18;;;;;;;1.27;1.27;;;;;;;27.06;38.80;99670.63;5086142;28;20203;-68
2023/10/01 10:45:58;;;;;;;1.50;1.33;;;;;;;26.99;39.18;99666.91;5086829;28;20195;-68
2023/10/01 10:49:03;;;;;;;1.90;1.80;;;;;;;26.90;39.33;99649.38;5093176;28;20210;-68
2023/10/01 10:51:52;;;;;;;0.80;0.80;;;;;;;27.05;39.92;99653.19;5092960;28;20191;-68
2023/10/01 10:54:29;;;;;;;1.23;1.10;;;;;;;27.09;39.39;99659.00;5085030;28;20199;-68
2023/10/01 10:56:58;;;;;;;1.67;1.57;;;;;;;27.12;37.96;99653.44;5093165;28;20666;-68
2023/10/01 10:59:26;;;;;;;1.63;1.53;;;;;;;27.21;40.98;99651.72;5093049;28;20235;-68
2023/10/01 11:01:56;;;;;;;1.30;1.20;;;;;;;27.34;38.78;99636.41;5093098;28;20343;-68
2023/10/01 11:04:30;;;;;;;1.60;1.47;;;;;;;27.45;36.69;99633.63;5075123;28;20261;-68
2023/10/01 11:07:06;;;;;;;3.90;1.30;;;;;;;27.61;37.71;99632.00;5093159;28;20205;-68
2023/10/01 11:09:34;;;;;;;1.03;1.03;;;;;;;27.78;36.43;99635.63;5092790;28;20211;-68
2023/10/01 11:12:18;;;;;;;0.90;0.90;;;;;;;28.00;37.79;99629.91;5092781;28;20250;-69
2023/10/01 11:14:55;;;;;;;1.33;1.23;;;;;;;27.97;37.12;99634.66;5087432;28;20673;-68
2023/10/01 11:17:22;;;;;;;2.73;1.27;;;;;;;27.90;35.83;99621.25;5092352;28;20202;-68
2023/10/01 11:19:49;;;;;;;1.17;1.17;;;;;;;28.00;37.90;99611.47;5092384;28;20223;-68
2023/10/01 11:22:18;;;;;;;0.83;0.83;;;;;;;28.04;36.32;99620.72;5092646;28;20641;-68
2023/10/01 11:24:46;;;;;;;1.63;1.53;;;;;;;28.14;36.00;99615.41;5092089;28;20191;-68
2023/10/01 11:27:17;;;;;;;1.00;1.00;;;;;;;28.21;37.02;99605.06;5092416;28;20294;-68
2023/10/01 11:29:45;;;;;;;1.37;1.37;;;;;;;28.36;38.78;99608.81;5091543;28;20202;-68
2023/10/01 11:32:16;;;;;;;1.27;1.27;;;;;;;28.48;36.22;99610.19;5092410;28;20644;-68
2023/10/01 11:34:55;;;;;;;1.50;1.50;;;;;;;28.47;35.34;99600.63;5092173;28;20281;-67
2023/10/01 11:37:27;;;;;;;1.20;1.20;;;;;;;28.58;34.95;99608.28;5092091;28;20213;-68
2023/10/01 11:39:55;;;;;;;1.20;1.10;;;;;;;28.64;35.76;99597.94;5085614;28;20318;-68
2023/10/01 11:42:35;;;;;;;3.77;1.00;;;;;;;28.73;35.51;99596.19;5092262;28;20206;-68
2023/10/01 11:45:28;;;;;;;1.50;1.40;;;;;;;28.74;34.67;99597.03;5092053;28;20290;-68
2023/10/01 11:48:05;;;;;;;1.65;1.55;;;;;;;28.78;34.50;99593.94;5092378;28;20233;-68
2023/10/01 11:50:32;;;;;;;1.00;1.00;;;;;;;28.85;32.84;99592.31;5091938;28;20203;-68
2023/10/01 11:53:05;;;;;;;1.08;1.08;;;;;;;28.89;32.89;99591.00;5092037;28;20206;-67
2023/10/01 11:55:33;;;;;;;1.23;1.23;;;;;;;29.06;33.60;99587.44;5091694;28;20203;-68
2023/10/01 11:58:01;;;;;;;1.30;1.25;;;;;;;29.10;34.13;99586.16;5083834;28;20203;-67
2023/10/01 12:03:16;;;;;;;1.05;1.05;;;;;;;29.22;33.72;99583.19;5091701;28;20582;-68
2023/10/01 12:06:33;;;;;;;2.50;1.10;;;;;;;29.21;34.16;99584.22;5091876;28;20631;-68
2023/10/01 12:09:00;;;;;;;0.93;0.93;;;;;;;29.16;32.82;99576.75;5092127;28;20210;-67
2023/10/01 12:11:27;;;;;;;1.05;1.05;;;;;;;29.13;32.23;99575.25;5091826;28;20205;-68
2023/10/01 12:14:06;;;;;;;1.20;1.20;;;;;;;28.95;33.17;99574.50;5091918;28;20218;-68
2023/10/01 12:16:33;;;;;;;0.90;0.90;;;;;;;29.02;31.97;99570.25;5091502;28;20191;-68
2023/10/01 12:19:22;;;;;;;1.35;1.30;;;;;;;29.02;33.40;99567.63;5091796;28;20737;-67
2023/10/01 12:21:48;;;;;;;4.05;1.27;;;;;;;29.15;32.46;99562.72;5091342;28;20215;-67
2023/10/01 12:24:16;;;;;;;1.17;1.17;;;;;;;29.12;31.38;99560.41;5091657;28;20203;-67